F/V Oceanie — FVBW — position and weather

sailwx.info

Track history (hours):
 
Tides and Currents Weather Stations Pressure Air Temp Water Temp Dewpoint Dewpoint Depression Visibility Wind Speed Wind Dir Waves Ship Positions

F/V Oceanie

Last reported at 2015-Jul-07 05:33 UTC. Time now 2015-Jul-07 13:14 UTC.
Position N 47°05' W 003°22'.

Length 16 m.

Type: Fishing. MMSI: 228370000.

Date/timePositionNaut miles runAvg speedWind from/ knotsBaromVisibWave heightAir tempDewpointWater temp
2015-Jul-07 05:33N 47°05' W 003°22'7 6.6
2015-Jul-07 04:33N 47°12' W 003°22'9 9.1
2015-Jul-07 03:33N 47°21' W 003°22'9 8.9
2015-Jul-07 02:33N 47°30' W 003°22'9 8.8
2015-Jul-07 01:33N 47°38' W 003°23'5 5.3
2015-Jul-07 00:33N 47°44' W 003°22'8 8.0
2015-Jul-06 23:33N 47°36' W 003°23'9 9.0
2015-Jul-06 22:33N 47°27' W 003°22'9 8.7
2015-Jul-06 21:32N 47°18' W 003°22'9 8.7
2015-Jul-06 20:32N 47°09' W 003°22'6 6.2
2015-Jul-06 19:33N 47°03' W 003°22'5 3.7
2015-Jul-06 18:14N 46°58' W 003°21'3 4.0
2015-Jul-06 17:34N 46°56' W 003°21'4 3.6
2015-Jul-06 16:31N 46°52' W 003°18'3 2.9
2015-Jul-06 15:28N 46°50' W 003°16'3 2.9
2015-Jul-06 14:30N 46°49' W 003°12'11 1.3
2015-Jul-06 06:04N 46°57' W 003°23'2 4.1
2015-Jul-06 05:33N 46°59' W 003°24'8 6.6
2015-Jul-06 04:22N 47°07' W 003°24'7 8.6
2015-Jul-06 03:33N 47°14' W 003°24'8 8.5
2015-Jul-06 02:33N 47°22' W 003°24'9 8.6
2015-Jul-06 01:33N 47°31' W 003°23'9 8.8
2015-Jul-06 00:33N 47°40' W 003°22'4 4.2
2015-Jul-05 23:33N 47°44' W 003°22'0 0.0
2015-Jul-04 02:24N 47°44' W 003°22'0 0.1
2015-Jul-04 01:33N 47°44' W 003°22'3 2.6
2015-Jul-04 00:33N 47°41' W 003°22'10 9.6
2015-Jul-03 23:33N 47°32' W 003°23'9 9.1
2015-Jul-03 22:31N 47°22' W 003°24'8 7.7
2015-Jul-03 21:33N 47°15' W 003°25'8 7.6
2015-Jul-03 20:29N 47°07' W 003°25'4 3.8
2015-Jul-03 19:29N 47°03' W 003°25'4 3.9
2015-Jul-03 18:29N 46°59' W 003°24'12 2.3
2015-Jul-03 13:19N 46°49' W 003°17'3 4.0
2015-Jul-03 12:33N 46°49' W 003°21'5 3.6
2015-Jul-03 11:18N 46°50' W 003°14'2 2.5
2015-Jul-03 10:32N 46°48' W 003°13'8 3.3
2015-Jul-03 08:09N 46°52' W 003°24'2 3.3
2015-Jul-03 07:32N 46°54' W 003°23'4 4.1
2015-Jul-03 06:33N 46°58' W 003°24'4 4.3
2015-Jul-03 05:33N 47°02' W 003°25'6 5.6
2015-Jul-03 04:33N 47°08' W 003°25'10 9.6
2015-Jul-03 03:33N 47°17' W 003°24'9 9.4
2015-Jul-03 02:33N 47°27' W 003°23'9 9.4
2015-Jul-03 01:33N 47°36' W 003°23'8 7.8
2015-Jul-03 00:33N 47°44' W 003°22'7 6.6
2015-Jul-02 23:33N 47°37' W 003°22'10 9.5
2015-Jul-02 22:33N 47°28' W 003°23'9 9.2
2015-Jul-02 21:33N 47°18' W 003°24'9 9.3
2015-Jul-02 20:33N 47°09' W 003°25'6 5.7
2015-Jul-02 19:33N 47°03' W 003°25'4 4.0
2015-Jul-02 18:29N 46°59' W 003°25'9 1.1
2015-Jul-02 10:27N 46°51' W 003°21'3 3.0
2015-Jul-02 09:28N 46°53' W 003°19'12 2.8
2015-Jul-02 05:23N 47°04' W 003°24'5 6.1
2015-Jul-02 04:33N 47°09' W 003°24'10 9.5
2015-Jul-02 03:33N 47°19' W 003°24'9 9.3
2015-Jul-02 02:33N 47°28' W 003°23'9 9.3
2015-Jul-02 01:33N 47°38' W 003°22'6 6.1
2015-Jul-02 00:33N 47°44' W 003°22'5 4.7
2015-Jul-01 23:33N 47°39' W 003°22'10 9.5
2015-Jul-01 22:33N 47°29' W 003°23'9 9.1
2015-Jul-01 21:33N 47°20' W 003°25'8 7.2
2015-Jul-01 20:25N 47°12' W 003°26'4 3.9
2015-Jul-01 19:31N 47°09' W 003°25'4 4.0
2015-Jul-01 18:29N 47°05' W 003°24'4 4.0
2015-Jul-01 17:28N 47°01' W 003°22'3 3.0
2015-Jul-01 16:28N 46°58' W 003°21'3 3.4
2015-Jul-01 15:27N 46°55' W 003°23'3 3.7
2015-Jul-01 14:33N 46°58' W 003°24'3 2.9
2015-Jul-01 13:32N 46°55' W 003°23'3 2.7
2015-Jul-01 12:33N 46°58' W 003°24'2 2.1
2015-Jul-01 11:32N 46°58' W 003°21'4 0.9
2015-Jul-01 07:24N 46°54' W 003°23'4 4.1
2015-Jul-01 06:32N 46°58' W 003°22'5 4.2
2015-Jul-01 05:24N 47°03' W 003°23'4 4.2
2015-Jul-01 04:33N 47°06' W 003°24'8 8.3
2015-Jul-01 03:33N 47°14' W 003°23'9 9.4
2015-Jul-01 02:33N 47°24' W 003°23'9 9.3
2015-Jul-01 01:33N 47°33' W 003°22'9 9.2
2015-Jul-01 00:33N 47°42' W 003°22'2 1.6
2015-Jun-30 23:33N 47°44' W 003°22'0 0.1
2015-Jun-30 22:33N 47°44' W 003°22'9 9.3
2015-Jun-30 21:33N 47°34' W 003°23'9 9.2
2015-Jun-30 20:33N 47°25' W 003°23'9 8.7
2015-Jun-30 19:33N 47°17' W 003°23'9 9.1
2015-Jun-30 18:33N 47°07' W 003°24'5 5.4
2015-Jun-30 17:33N 47°02' W 003°23'5 2.3
2015-Jun-30 15:33N 46°58' W 003°26'3 2.3
2015-Jun-30 14:27N 46°58' W 003°22'1 0.9
2015-Jun-30 13:29N 46°58' W 003°21'13 3.8
2015-Jun-30 10:12N 46°46' W 003°22'2 1.1
2015-Jun-30 08:33N 46°44' W 003°21'1 1.0
2015-Jun-30 07:33N 46°44' W 003°23'1 1.2
2015-Jun-30 06:33N 46°45' W 003°22'1 0.5
2015-Jun-30 05:33N 46°45' W 003°23'0 0.5
2015-Jun-30 04:33N 46°45' W 003°22'2 1.9
2015-Jun-30 03:24N 46°44' W 003°25'3 3.0
2015-Jun-30 02:33N 46°45' W 003°22'4 3.6
2015-Jun-30 01:26N 46°45' W 003°16'2 2.2
2015-Jun-30 00:26N 46°44' W 003°19'5 1.8
2015-Jun-29 21:33N 46°39' W 003°17'4 2.7
2015-Jun-29 20:14N 46°42' W 003°19'3 4.0
2015-Jun-29 19:29N 46°44' W 003°23'0 0.4
2015-Jun-29 18:32N 46°44' W 003°23'2 1.5
2015-Jun-29 17:34N 46°45' W 003°23'2 1.9
2015-Jun-29 16:33N 46°43' W 003°23'2 2.2
2015-Jun-29 15:33N 46°45' W 003°22'0 0.1
2015-Jun-29 14:33N 46°45' W 003°22'2 2.2
2015-Jun-29 13:33N 46°45' W 003°25'4 4.1
2015-Jun-29 12:33N 46°48' W 003°28'4 4.0
2015-Jun-29 11:31N 46°52' W 003°29'4 3.7
2015-Jun-29 10:33N 46°56' W 003°29'3 3.1
2015-Jun-29 09:33N 46°59' W 003°27'3 3.0
2015-Jun-29 08:33N 47°01' W 003°24'4 3.8
2015-Jun-29 07:33N 47°04' W 003°27'7 7.2
2015-Jun-29 06:33N 47°11' W 003°26'9 9.2
2015-Jun-29 05:33N 47°21' W 003°24'9 9.2
2015-Jun-29 04:33N 47°30' W 003°24'9 9.4
2015-Jun-29 03:33N 47°39' W 003°22'5 4.6
2015-Jun-29 02:33N 47°44' W 003°22'  
Track history (hours):
 
Tides and Currents Weather Stations Pressure Air Temp Water Temp Dewpoint Dewpoint Depression Visibility Wind Speed Wind Dir Waves Ship Positions

F/V Oceanie

Last reported at 2015-Jul-07 05:33 UTC. Time now 2015-Jul-07 13:14 UTC.
Position N 47°05' W 003°22'.

Length 16 m.

Type: Fishing. MMSI: 228370000.

Date/timePositionNaut miles runAvg speedWind from/ knotsBaromVisibWave heightAir tempDewpointWater temp
2015-Jul-07 05:33N 47°05' W 003°22'7 6.6
2015-Jul-07 04:33N 47°12' W 003°22'9 9.1
2015-Jul-07 03:33N 47°21' W 003°22'9 8.9
2015-Jul-07 02:33N 47°30' W 003°22'9 8.8
2015-Jul-07 01:33N 47°38' W 003°23'5 5.3
2015-Jul-07 00:33N 47°44' W 003°22'8 8.0
2015-Jul-06 23:33N 47°36' W 003°23'9 9.0
2015-Jul-06 22:33N 47°27' W 003°22'9 8.7
2015-Jul-06 21:32N 47°18' W 003°22'9 8.7
2015-Jul-06 20:32N 47°09' W 003°22'6 6.2
2015-Jul-06 19:33N 47°03' W 003°22'5 3.7
2015-Jul-06 18:14N 46°58' W 003°21'3 4.0
2015-Jul-06 17:34N 46°56' W 003°21'4 3.6
2015-Jul-06 16:31N 46°52' W 003°18'3 2.9
2015-Jul-06 15:28N 46°50' W 003°16'3 2.9
2015-Jul-06 14:30N 46°49' W 003°12'11 1.3
2015-Jul-06 06:04N 46°57' W 003°23'2 4.1
2015-Jul-06 05:33N 46°59' W 003°24'8 6.6
2015-Jul-06 04:22N 47°07' W 003°24'7 8.6
2015-Jul-06 03:33N 47°14' W 003°24'8 8.5
2015-Jul-06 02:33N 47°22' W 003°24'9 8.6
2015-Jul-06 01:33N 47°31' W 003°23'9 8.8
2015-Jul-06 00:33N 47°40' W 003°22'4 4.2
2015-Jul-05 23:33N 47°44' W 003°22'0 0.0
2015-Jul-04 02:24N 47°44' W 003°22'0 0.1
2015-Jul-04 01:33N 47°44' W 003°22'3 2.6
2015-Jul-04 00:33N 47°41' W 003°22'10 9.6
2015-Jul-03 23:33N 47°32' W 003°23'9 9.1
2015-Jul-03 22:31N 47°22' W 003°24'8 7.7
2015-Jul-03 21:33N 47°15' W 003°25'8 7.6
2015-Jul-03 20:29N 47°07' W 003°25'4 3.8
2015-Jul-03 19:29N 47°03' W 003°25'4 3.9
2015-Jul-03 18:29N 46°59' W 003°24'12 2.3
2015-Jul-03 13:19N 46°49' W 003°17'3 4.0
2015-Jul-03 12:33N 46°49' W 003°21'5 3.6
2015-Jul-03 11:18N 46°50' W 003°14'2 2.5
2015-Jul-03 10:32N 46°48' W 003°13'8 3.3
2015-Jul-03 08:09N 46°52' W 003°24'2 3.3
2015-Jul-03 07:32N 46°54' W 003°23'4 4.1
2015-Jul-03 06:33N 46°58' W 003°24'4 4.3
2015-Jul-03 05:33N 47°02' W 003°25'6 5.6
2015-Jul-03 04:33N 47°08' W 003°25'10 9.6
2015-Jul-03 03:33N 47°17' W 003°24'9 9.4
2015-Jul-03 02:33N 47°27' W 003°23'9 9.4
2015-Jul-03 01:33N 47°36' W 003°23'8 7.8
2015-Jul-03 00:33N 47°44' W 003°22'7 6.6
2015-Jul-02 23:33N 47°37' W 003°22'10 9.5
2015-Jul-02 22:33N 47°28' W 003°23'9 9.2
2015-Jul-02 21:33N 47°18' W 003°24'9 9.3
2015-Jul-02 20:33N 47°09' W 003°25'6 5.7
2015-Jul-02 19:33N 47°03' W 003°25'4 4.0
2015-Jul-02 18:29N 46°59' W 003°25'9 1.1
2015-Jul-02 10:27N 46°51' W 003°21'3 3.0
2015-Jul-02 09:28N 46°53' W 003°19'12 2.8
2015-Jul-02 05:23N 47°04' W 003°24'5 6.1
2015-Jul-02 04:33N 47°09' W 003°24'10 9.5
2015-Jul-02 03:33N 47°19' W 003°24'9 9.3
2015-Jul-02 02:33N 47°28' W 003°23'9 9.3
2015-Jul-02 01:33N 47°38' W 003°22'6 6.1
2015-Jul-02 00:33N 47°44' W 003°22'5 4.7
2015-Jul-01 23:33N 47°39' W 003°22'10 9.5
2015-Jul-01 22:33N 47°29' W 003°23'9 9.1
2015-Jul-01 21:33N 47°20' W 003°25'8 7.2
2015-Jul-01 20:25N 47°12' W 003°26'4 3.9
2015-Jul-01 19:31N 47°09' W 003°25'4 4.0
2015-Jul-01 18:29N 47°05' W 003°24'4 4.0
2015-Jul-01 17:28N 47°01' W 003°22'3 3.0
2015-Jul-01 16:28N 46°58' W 003°21'3 3.4
2015-Jul-01 15:27N 46°55' W 003°23'3 3.7
2015-Jul-01 14:33N 46°58' W 003°24'3 2.9
2015-Jul-01 13:32N 46°55' W 003°23'3 2.7
2015-Jul-01 12:33N 46°58' W 003°24'2 2.1
2015-Jul-01 11:32N 46°58' W 003°21'4 0.9
2015-Jul-01 07:24N 46°54' W 003°23'4 4.1
2015-Jul-01 06:32N 46°58' W 003°22'5 4.2
2015-Jul-01 05:24N 47°03' W 003°23'4 4.2
2015-Jul-01 04:33N 47°06' W 003°24'8 8.3
2015-Jul-01 03:33N 47°14' W 003°23'9 9.4
2015-Jul-01 02:33N 47°24' W 003°23'9 9.3
2015-Jul-01 01:33N 47°33' W 003°22'9 9.2
2015-Jul-01 00:33N 47°42' W 003°22'2 1.6
2015-Jun-30 23:33N 47°44' W 003°22'0 0.1
2015-Jun-30 22:33N 47°44' W 003°22'9 9.3
2015-Jun-30 21:33N 47°34' W 003°23'9 9.2
2015-Jun-30 20:33N 47°25' W 003°23'9 8.7
2015-Jun-30 19:33N 47°17' W 003°23'9 9.1
2015-Jun-30 18:33N 47°07' W 003°24'5 5.4
2015-Jun-30 17:33N 47°02' W 003°23'5 2.3
2015-Jun-30 15:33N 46°58' W 003°26'3 2.3
2015-Jun-30 14:27N 46°58' W 003°22'1 0.9
2015-Jun-30 13:29N 46°58' W 003°21'13 3.8
2015-Jun-30 10:12N 46°46' W 003°22'2 1.1
2015-Jun-30 08:33N 46°44' W 003°21'1 1.0
2015-Jun-30 07:33N 46°44' W 003°23'1 1.2
2015-Jun-30 06:33N 46°45' W 003°22'1 0.5
2015-Jun-30 05:33N 46°45' W 003°23'0 0.5
2015-Jun-30 04:33N 46°45' W 003°22'2 1.9
2015-Jun-30 03:24N 46°44' W 003°25'3 3.0
2015-Jun-30 02:33N 46°45' W 003°22'4 3.6
2015-Jun-30 01:26N 46°45' W 003°16'2 2.2
2015-Jun-30 00:26N 46°44' W 003°19'5 1.8
2015-Jun-29 21:33N 46°39' W 003°17'4 2.7
2015-Jun-29 20:14N 46°42' W 003°19'3 4.0
2015-Jun-29 19:29N 46°44' W 003°23'0 0.4
2015-Jun-29 18:32N 46°44' W 003°23'2 1.5
2015-Jun-29 17:34N 46°45' W 003°23'2 1.9
2015-Jun-29 16:33N 46°43' W 003°23'2 2.2
2015-Jun-29 15:33N 46°45' W 003°22'0 0.1
2015-Jun-29 14:33N 46°45' W 003°22'2 2.2
2015-Jun-29 13:33N 46°45' W 003°25'4 4.1
2015-Jun-29 12:33N 46°48' W 003°28'4 4.0
2015-Jun-29 11:31N 46°52' W 003°29'4 3.7
2015-Jun-29 10:33N 46°56' W 003°29'3 3.1
2015-Jun-29 09:33N 46°59' W 003°27'3 3.0
2015-Jun-29 08:33N 47°01' W 003°24'4 3.8
2015-Jun-29 07:33N 47°04' W 003°27'7 7.2
2015-Jun-29 06:33N 47°11' W 003°26'9 9.2
2015-Jun-29 05:33N 47°21' W 003°24'9 9.2
2015-Jun-29 04:33N 47°30' W 003°24'9 9.4
2015-Jun-29 03:33N 47°39' W 003°22'5 4.6
2015-Jun-29 02:33N 47°44' W 003°22'  

Dump ship's entire track history